createdAt,value
2018-08-02T00:00:27.891Z,2.73
2018-08-02T00:02:55.258Z,2.30
2018-08-02T00:05:22.633Z,2.20
2018-08-02T00:07:50.137Z,2.20
2018-08-02T00:10:17.507Z,2.07
2018-08-02T00:12:44.855Z,2.40
2018-08-02T00:15:12.416Z,2.70
2018-08-02T00:17:39.776Z,2.47
2018-08-02T00:20:08.433Z,2.87
2018-08-02T00:22:36.391Z,2.70
2018-08-02T00:25:03.987Z,2.87
2018-08-02T00:27:31.451Z,2.50
2018-08-02T00:29:58.964Z,2.77
2018-08-02T00:32:26.376Z,2.30
2018-08-02T00:34:53.736Z,3.30
2018-08-02T00:37:21.088Z,2.90
2018-08-02T00:39:48.428Z,2.90
2018-08-02T00:42:15.805Z,2.57
2018-08-02T00:44:43.200Z,2.70
2018-08-02T00:47:10.564Z,2.60
2018-08-02T00:49:37.891Z,2.90
2018-08-02T00:52:05.239Z,2.90
2018-08-02T00:54:32.576Z,2.57
2018-08-02T00:56:59.968Z,2.37
2018-08-02T00:59:27.397Z,2.57
2018-08-02T01:01:54.775Z,2.80
2018-08-02T01:04:22.116Z,2.40
2018-08-02T01:06:49.531Z,2.50
2018-08-02T01:09:17.063Z,2.40
2018-08-02T01:11:44.419Z,2.57
2018-08-02T01:14:11.772Z,2.70
2018-08-02T01:16:39.124Z,2.63
2018-08-02T01:19:06.468Z,3.17
2018-08-02T01:21:33.798Z,2.83
2018-08-02T01:24:01.164Z,2.90
2018-08-02T01:26:28.589Z,2.87
2018-08-02T01:28:55.936Z,2.73
2018-08-02T01:31:23.370Z,2.70
2018-08-02T01:33:50.712Z,2.87
2018-08-02T01:36:18.148Z,3.00
2018-08-02T01:38:45.531Z,2.33
2018-08-02T01:41:12.963Z,2.87
2018-08-02T01:43:40.316Z,2.97
2018-08-02T01:46:07.682Z,2.90
2018-08-02T01:48:35.028Z,2.90
2018-08-02T01:51:02.515Z,3.00
2018-08-02T01:53:29.961Z,3.23
2018-08-02T01:55:57.307Z,2.60
2018-08-02T01:58:24.651Z,2.70
2018-08-02T02:00:52.078Z,2.60
2018-08-02T02:03:19.384Z,3.30
2018-08-02T02:05:46.788Z,2.80
2018-08-02T02:08:14.231Z,2.97
2018-08-02T02:10:41.613Z,2.73
2018-08-02T02:13:12.511Z,3.40
2018-08-02T02:15:40.386Z,2.60
2018-08-02T02:18:07.857Z,2.87
2018-08-02T02:20:35.494Z,3.00
2018-08-02T02:23:02.844Z,2.80
2018-08-02T02:25:30.203Z,3.50
2018-08-02T02:27:57.611Z,2.50
2018-08-02T02:30:24.948Z,3.10
2018-08-02T02:32:52.297Z,2.80
2018-08-02T02:35:19.668Z,3.00
2018-08-02T02:37:47.054Z,3.33
2018-08-02T02:40:14.588Z,2.80
2018-08-02T02:42:42.000Z,3.10
2018-08-02T02:45:09.408Z,3.17
2018-08-02T02:47:36.735Z,2.67
2018-08-02T02:50:04.115Z,3.17
2018-08-02T02:52:31.608Z,3.00
2018-08-02T02:54:58.926Z,3.13
2018-08-02T02:57:26.359Z,3.30
2018-08-02T02:59:53.783Z,3.40
2018-08-02T03:02:21.212Z,3.30
2018-08-02T03:04:48.628Z,3.13
2018-08-02T03:07:16.007Z,3.33
2018-08-02T03:09:43.356Z,3.13
2018-08-02T03:12:10.792Z,3.07
2018-08-02T03:14:38.169Z,3.50
2018-08-02T03:17:05.536Z,3.13
2018-08-02T03:19:32.916Z,3.50
2018-08-02T03:22:00.284Z,3.70
2018-08-02T03:24:28.023Z,3.43
2018-08-02T03:26:55.349Z,3.50
2018-08-02T03:29:22.711Z,3.50
2018-08-02T03:31:50.091Z,3.77
2018-08-02T03:34:17.439Z,3.50
2018-08-02T03:36:44.800Z,3.43
2018-08-02T03:39:12.136Z,3.53
2018-08-02T03:41:39.521Z,3.53
2018-08-02T03:44:07.212Z,3.37
2018-08-02T03:46:34.672Z,3.47
2018-08-02T03:49:01.944Z,3.63
2018-08-02T03:51:29.280Z,4.03
2018-08-02T03:53:56.695Z,3.60
2018-08-02T03:56:23.992Z,4.27
2018-08-02T03:58:51.463Z,4.00
2018-08-02T04:01:18.817Z,3.40
2018-08-02T04:03:46.208Z,3.67
2018-08-02T04:06:13.643Z,4.20
2018-08-02T04:08:41.071Z,3.67
2018-08-02T04:11:08.547Z,4.17
2018-08-02T04:13:35.886Z,3.93
2018-08-02T04:16:03.243Z,3.60
2018-08-02T04:18:31.108Z,3.80
2018-08-02T04:20:58.583Z,3.60
2018-08-02T04:23:25.926Z,3.80
2018-08-02T04:25:53.263Z,4.30
2018-08-02T04:28:20.652Z,4.30
2018-08-02T04:30:48.048Z,3.80
2018-08-02T04:33:15.472Z,4.47
2018-08-02T04:35:42.892Z,3.97
2018-08-02T04:38:10.255Z,3.60
2018-08-02T04:40:37.675Z,4.40
2018-08-02T04:43:05.068Z,4.10
2018-08-02T04:45:32.408Z,3.90
2018-08-02T04:47:59.784Z,4.50
2018-08-02T04:50:27.109Z,4.37
2018-08-02T04:52:54.525Z,4.33
2018-08-02T04:55:21.848Z,4.23
2018-08-02T04:57:49.199Z,4.80
2018-08-02T05:00:16.559Z,5.50
2018-08-02T05:02:43.957Z,5.47
2018-08-02T05:05:11.331Z,5.77
2018-08-02T05:07:38.691Z,4.67
2018-08-02T05:10:06.128Z,5.20
2018-08-02T05:12:33.472Z,4.97
2018-08-02T05:15:00.816Z,4.57
2018-08-02T05:17:28.144Z,4.30
2018-08-02T05:19:55.478Z,4.70
2018-08-02T05:22:22.912Z,4.80
2018-08-02T05:24:50.200Z,6.40
2018-08-02T05:27:17.548Z,5.17
2018-08-02T05:29:44.931Z,5.90
2018-08-02T05:32:12.361Z,5.73
2018-08-02T05:34:39.754Z,5.47
2018-08-02T05:37:07.171Z,4.13
2018-08-02T05:39:34.511Z,5.27
2018-08-02T05:42:01.897Z,4.60
2018-08-02T05:44:29.260Z,4.87
2018-08-02T05:46:56.605Z,4.60
2018-08-02T05:49:24.052Z,4.60
2018-08-02T05:51:51.433Z,4.60
2018-08-02T05:54:18.836Z,5.80
2018-08-02T05:56:46.217Z,6.73
2018-08-02T05:59:13.547Z,6.03
2018-08-02T06:01:40.929Z,6.47
2018-08-02T06:04:08.276Z,6.00
2018-08-02T06:06:35.599Z,6.10
2018-08-02T06:09:04.629Z,6.10
2018-08-02T06:11:32.070Z,5.50
2018-08-02T06:13:59.484Z,6.50
2018-08-02T06:16:27.065Z,6.80
2018-08-02T06:18:54.406Z,5.90
2018-08-02T06:21:21.786Z,6.50
2018-08-02T06:23:49.163Z,6.20
2018-08-02T06:26:17.568Z,5.77
2018-08-02T06:28:44.928Z,6.10
2018-08-02T06:31:12.264Z,6.63
2018-08-02T06:33:39.640Z,5.90
2018-08-02T06:36:06.996Z,5.80
2018-08-02T06:38:34.419Z,6.23
2018-08-02T06:41:01.821Z,6.70
2018-08-02T06:43:33.579Z,7.03
2018-08-02T06:46:00.916Z,7.07
2018-08-02T06:48:27.472Z,7.10
2018-08-02T06:50:54.835Z,6.33
2018-08-02T06:53:22.207Z,7.17
2018-08-02T06:55:49.560Z,6.77
2018-08-02T06:58:16.898Z,7.10
2018-08-02T07:00:44.344Z,7.47
2018-08-02T07:03:11.868Z,7.20
2018-08-02T07:05:39.187Z,7.50
2018-08-02T07:08:06.544Z,7.30
2018-08-02T07:10:33.975Z,6.70
2018-08-02T07:13:01.328Z,8.23
2018-08-02T07:15:28.677Z,6.00
2018-08-02T07:17:56.036Z,5.70
2018-08-02T07:20:23.427Z,4.73
2018-08-02T07:22:50.807Z,5.13
2018-08-02T07:25:18.155Z,5.50
2018-08-02T07:27:45.499Z,5.20
2018-08-02T07:30:12.831Z,4.83
2018-08-02T07:32:40.303Z,5.27
2018-08-02T07:35:07.685Z,5.43
2018-08-02T07:37:35.044Z,4.43
2018-08-02T07:40:02.567Z,4.63
2018-08-02T07:42:29.913Z,4.43
2018-08-02T07:44:57.271Z,4.40
2018-08-02T07:47:24.711Z,4.30
2018-08-02T07:49:52.087Z,4.83
2018-08-02T07:52:19.415Z,4.07
2018-08-02T07:54:46.744Z,4.77
2018-08-02T07:57:14.088Z,4.90
2018-08-02T07:59:41.428Z,4.73
2018-08-02T08:02:08.769Z,5.30
2018-08-02T08:04:36.138Z,4.10
2018-08-02T08:07:03.493Z,5.30
2018-08-02T08:09:30.869Z,3.80
2018-08-02T08:11:58.238Z,3.93
2018-08-02T08:14:25.586Z,3.83
2018-08-02T08:16:52.932Z,3.77
2018-08-02T08:19:20.316Z,4.27
2018-08-02T08:21:47.787Z,3.60
2018-08-02T08:24:15.212Z,4.53
2018-08-02T08:26:42.580Z,4.57
2018-08-02T08:29:09.991Z,4.40
2018-08-02T08:31:37.433Z,4.03
2018-08-02T08:34:04.817Z,4.47
2018-08-02T08:36:32.203Z,4.10
2018-08-02T08:38:59.499Z,3.80
2018-08-02T08:41:26.836Z,3.97
2018-08-02T08:43:54.178Z,3.67
2018-08-02T08:46:21.608Z,4.30
2018-08-02T08:48:48.968Z,4.40
2018-08-02T08:51:16.345Z,6.07
2018-08-02T08:53:43.708Z,5.17
2018-08-02T08:56:11.111Z,4.30
2018-08-02T08:58:43.976Z,4.60
2018-08-02T09:01:11.340Z,4.50
2018-08-02T09:03:38.713Z,4.73
2018-08-02T09:06:06.102Z,4.70
2018-08-02T09:08:33.452Z,4.40
2018-08-02T09:11:00.818Z,4.83
2018-08-02T09:13:28.154Z,4.43
2018-08-02T09:15:55.603Z,4.67
2018-08-02T09:18:22.963Z,5.03
2018-08-02T09:20:50.315Z,4.90
2018-08-02T09:23:17.683Z,5.30
2018-08-02T09:25:45.069Z,4.70
2018-08-02T09:28:12.413Z,4.50
2018-08-02T09:30:39.772Z,4.07
2018-08-02T09:33:07.223Z,5.10
2018-08-02T09:35:34.495Z,3.77
2018-08-02T09:38:01.839Z,4.37
2018-08-02T09:40:29.485Z,5.03
2018-08-02T09:42:56.841Z,4.10
2018-08-02T09:45:24.187Z,5.10
2018-08-02T09:47:51.605Z,4.53
2018-08-02T09:50:18.956Z,3.70
2018-08-02T09:52:46.297Z,5.50
2018-08-02T09:55:13.687Z,4.13
2018-08-02T09:57:41.037Z,5.37
2018-08-02T10:00:08.410Z,4.57
2018-08-02T10:02:35.760Z,4.50
2018-08-02T10:05:02.948Z,4.97
2018-08-02T10:07:30.181Z,4.10
2018-08-02T10:09:57.375Z,5.17
2018-08-02T10:12:24.555Z,4.37
2018-08-02T10:14:51.793Z,4.10
2018-08-02T10:17:19.036Z,4.30
2018-08-02T10:19:46.270Z,4.60
2018-08-02T10:22:13.452Z,4.23
2018-08-02T10:24:40.603Z,4.03
2018-08-02T10:27:07.752Z,4.87
2018-08-02T10:29:34.900Z,4.43
2018-08-02T10:32:02.085Z,4.07
2018-08-02T10:34:29.302Z,4.10
2018-08-02T10:36:56.461Z,4.13
2018-08-02T10:39:23.696Z,5.17
2018-08-02T10:41:50.884Z,4.33
2018-08-02T10:44:18.065Z,4.20
2018-08-02T10:46:45.228Z,3.60
2018-08-02T10:49:12.375Z,4.30
2018-08-02T10:51:39.575Z,3.60
2018-08-02T10:54:06.862Z,4.13
2018-08-02T10:56:34.039Z,4.77
2018-08-02T10:59:01.189Z,4.40
2018-08-02T11:01:28.403Z,4.20
2018-08-02T11:03:55.548Z,4.50
2018-08-02T11:06:22.719Z,4.83
2018-08-02T11:08:49.878Z,5.00
2018-08-02T11:11:17.175Z,4.20
2018-08-02T11:13:44.355Z,3.90
2018-08-02T11:16:11.544Z,4.20
2018-08-02T11:18:38.704Z,3.87
2018-08-02T11:21:05.942Z,3.57
2018-08-02T11:23:33.313Z,3.53
2018-08-02T11:26:00.493Z,4.17
2018-08-02T11:28:27.845Z,4.00
2018-08-02T11:30:55.060Z,3.93
2018-08-02T11:33:22.221Z,4.43
2018-08-02T11:35:49.376Z,4.43
2018-08-02T11:38:16.573Z,4.27
2018-08-02T11:40:43.736Z,4.40
2018-08-02T11:43:10.971Z,4.10
2018-08-02T11:45:38.127Z,4.20
2018-08-02T11:48:05.275Z,3.30
2018-08-02T11:50:32.568Z,3.63
2018-08-02T11:52:59.712Z,3.90
2018-08-02T11:55:26.971Z,3.83
2018-08-02T11:57:54.135Z,4.00
2018-08-02T12:00:21.295Z,3.70
2018-08-02T12:02:48.555Z,4.03
2018-08-02T12:05:15.788Z,3.90
2018-08-02T12:07:42.956Z,3.77
2018-08-02T12:10:10.139Z,4.07
2018-08-02T12:12:37.296Z,4.17
2018-08-02T12:15:05.032Z,3.43
2018-08-02T12:17:32.189Z,3.80
2018-08-02T12:19:59.415Z,4.10
2018-08-02T12:22:26.612Z,3.83
2018-08-02T12:24:53.979Z,4.30
2018-08-02T12:27:21.349Z,3.53
2018-08-02T12:29:48.690Z,4.07
2018-08-02T12:32:16.041Z,4.40
2018-08-02T12:34:43.408Z,3.50
2018-08-02T12:37:10.717Z,3.73
2018-08-02T12:39:38.067Z,3.17
2018-08-02T12:42:05.523Z,3.90
2018-08-02T12:44:32.863Z,3.53
2018-08-02T12:47:00.238Z,3.37
2018-08-02T12:49:27.571Z,3.70
2018-08-02T12:51:54.938Z,3.30
2018-08-02T12:54:22.426Z,3.33
2018-08-02T12:56:49.843Z,3.87
2018-08-02T12:59:17.164Z,4.13
2018-08-02T13:01:44.572Z,3.57
2018-08-02T13:04:11.899Z,3.60
2018-08-02T13:06:39.255Z,3.70
2018-08-02T13:09:07.629Z,3.87
2018-08-02T13:11:34.939Z,3.60
2018-08-02T13:14:03.053Z,3.30
2018-08-02T13:16:30.659Z,3.63
2018-08-02T13:18:58.059Z,3.83
2018-08-02T13:21:25.434Z,4.20
2018-08-02T13:23:52.860Z,4.00
2018-08-02T13:26:20.203Z,4.00
2018-08-02T13:28:47.547Z,3.43
2018-08-02T13:31:14.979Z,3.77
2018-08-02T13:33:42.327Z,3.63
2018-08-02T13:36:09.660Z,4.03
2018-08-02T13:38:37.017Z,4.07
2018-08-02T13:41:04.460Z,3.93
2018-08-02T13:43:31.900Z,4.00
2018-08-02T13:45:59.272Z,4.10
2018-08-02T13:48:26.729Z,4.00
2018-08-02T13:50:54.095Z,4.10
2018-08-02T13:53:21.531Z,4.60
2018-08-02T13:55:48.912Z,4.30
2018-08-02T13:58:16.308Z,3.50
2018-08-02T14:00:43.689Z,4.17
2018-08-02T14:03:11.147Z,4.60
2018-08-02T14:05:38.476Z,4.10
2018-08-02T14:08:05.854Z,4.10
2018-08-02T14:10:33.208Z,4.00
2018-08-02T14:13:00.579Z,3.93
2018-08-02T14:15:27.936Z,4.80
2018-08-02T14:17:55.280Z,4.67
2018-08-02T14:20:22.701Z,4.90
2018-08-02T14:22:50.129Z,4.30
2018-08-02T14:25:17.541Z,3.70
2018-08-02T14:27:44.976Z,3.90
2018-08-02T14:30:12.552Z,4.00
2018-08-02T14:32:40.029Z,4.60
2018-08-02T14:35:07.609Z,4.43
2018-08-02T14:37:34.935Z,4.00
2018-08-02T14:40:02.341Z,4.57
2018-08-02T14:42:30.044Z,3.87
2018-08-02T14:44:57.452Z,4.03
2018-08-02T14:47:24.791Z,4.03
2018-08-02T14:49:52.157Z,4.57
2018-08-02T14:52:19.507Z,4.00
2018-08-02T14:54:46.906Z,4.10
2018-08-02T14:57:14.252Z,4.40
2018-08-02T14:59:41.596Z,4.87
2018-08-02T15:02:09.066Z,4.27
2018-08-02T15:04:36.507Z,4.37
2018-08-02T15:07:04.015Z,4.23
2018-08-02T15:09:31.347Z,4.40
2018-08-02T15:11:58.699Z,4.50
2018-08-02T15:14:26.102Z,4.30
2018-08-02T15:16:53.568Z,4.43
2018-08-02T15:19:20.949Z,3.90
2018-08-02T15:21:48.371Z,4.70
2018-08-02T15:24:15.691Z,4.53
2018-08-02T15:26:43.062Z,4.93
2018-08-02T15:29:10.448Z,4.30
2018-08-02T15:31:37.788Z,6.03
2018-08-02T15:34:05.135Z,4.93
2018-08-02T15:36:32.531Z,4.57
2018-08-02T15:38:59.883Z,4.70
2018-08-02T15:41:27.259Z,4.10
2018-08-02T15:43:54.594Z,4.80
2018-08-02T15:46:21.932Z,4.70
2018-08-02T15:48:49.271Z,4.57
2018-08-02T15:51:16.698Z,4.70
2018-08-02T15:53:44.150Z,4.57
2018-08-02T15:56:11.520Z,4.70
2018-08-02T15:58:42.900Z,4.30
2018-08-02T16:01:10.368Z,4.60
2018-08-02T16:03:37.722Z,4.80
2018-08-02T16:06:06.191Z,4.40
2018-08-02T16:08:33.588Z,4.50
2018-08-02T16:11:01.003Z,3.70
2018-08-02T16:13:28.452Z,4.87
2018-08-02T16:15:55.899Z,3.97
2018-08-02T16:18:23.280Z,4.43
2018-08-02T16:20:50.660Z,4.27
2018-08-02T16:23:17.995Z,4.10
2018-08-02T16:25:45.445Z,4.33
2018-08-02T16:28:12.817Z,4.30
2018-08-02T16:30:40.188Z,4.00
2018-08-02T16:33:07.543Z,4.10
2018-08-02T16:35:34.948Z,3.80
2018-08-02T16:38:02.411Z,4.27
2018-08-02T16:40:29.784Z,4.17
2018-08-02T16:42:57.379Z,3.93
2018-08-02T16:45:28.253Z,4.63
2018-08-02T16:47:55.672Z,4.40
2018-08-02T16:50:23.019Z,4.23
2018-08-02T16:52:50.503Z,4.40
2018-08-02T16:55:17.858Z,3.90
2018-08-02T16:57:45.307Z,4.00
2018-08-02T17:00:12.745Z,4.17
2018-08-02T17:02:40.084Z,4.37
2018-08-02T17:05:07.523Z,4.10
2018-08-02T17:07:35.006Z,4.27
2018-08-02T17:10:02.513Z,4.30
2018-08-02T17:12:29.888Z,4.63
2018-08-02T17:14:57.259Z,4.10
2018-08-02T17:17:24.658Z,3.93
2018-08-02T17:19:52.034Z,3.80
2018-08-02T17:22:19.434Z,3.80
2018-08-02T17:24:46.755Z,4.47
2018-08-02T17:27:14.112Z,4.30
2018-08-02T17:29:41.470Z,3.90
2018-08-02T17:32:08.855Z,4.10
2018-08-02T17:34:36.319Z,3.93
2018-08-02T17:37:03.683Z,3.63
2018-08-02T17:39:32.110Z,3.73
2018-08-02T17:41:59.550Z,3.80
2018-08-02T17:44:26.908Z,4.20
2018-08-02T17:46:54.258Z,4.50
2018-08-02T17:49:21.591Z,4.10
2018-08-02T17:51:48.963Z,3.97
2018-08-02T17:54:16.394Z,3.40
2018-08-02T17:56:43.912Z,4.17
2018-08-02T17:59:11.278Z,3.53
2018-08-02T18:01:38.692Z,3.67
2018-08-02T18:04:06.032Z,3.80
2018-08-02T18:06:33.430Z,3.60
2018-08-02T18:09:00.756Z,3.37
2018-08-02T18:11:28.180Z,3.97
2018-08-02T18:13:55.531Z,3.70
2018-08-02T18:16:22.911Z,4.93
2018-08-02T18:18:50.312Z,3.90
2018-08-02T18:21:17.706Z,3.90
2018-08-02T18:23:45.176Z,3.50
2018-08-02T18:26:12.515Z,4.23
2018-08-02T18:28:39.896Z,3.47
2018-08-02T18:31:07.298Z,4.50
2018-08-02T18:33:34.765Z,3.80
2018-08-02T18:36:02.142Z,5.97
2018-08-02T18:38:29.465Z,6.03
2018-08-02T18:40:56.790Z,4.40
2018-08-02T18:43:24.233Z,4.60
2018-08-02T18:45:51.605Z,3.80
2018-08-02T18:48:18.953Z,4.57
2018-08-02T18:50:46.699Z,3.93
2018-08-02T18:53:14.040Z,3.77
2018-08-02T18:55:41.431Z,3.60
2018-08-02T18:58:08.795Z,3.53
2018-08-02T19:00:44.179Z,3.30
2018-08-02T19:08:42.441Z,3.60
2018-08-02T19:11:09.712Z,3.80
2018-08-02T19:13:44.546Z,3.40
2018-08-02T19:16:14.713Z,3.37
2018-08-02T19:18:42.006Z,3.60
2018-08-02T19:21:20.219Z,4.20
2018-08-02T19:23:56.979Z,3.20
2018-08-02T19:26:31.310Z,3.83
2018-08-02T19:28:58.577Z,3.87
2018-08-02T19:31:25.759Z,3.50
2018-08-02T19:33:52.970Z,3.97
2018-08-02T19:36:20.152Z,3.47
2018-08-02T19:38:47.371Z,4.20
2018-08-02T19:41:14.552Z,3.43
2018-08-02T19:43:41.725Z,3.10
2018-08-02T19:46:08.909Z,3.70
2018-08-02T19:48:36.081Z,3.70
2018-08-02T19:51:03.376Z,3.70
2018-08-02T19:53:30.556Z,4.10
2018-08-02T19:55:57.731Z,4.10
2018-08-02T19:58:24.880Z,3.50
2018-08-02T20:00:52.096Z,3.37
2018-08-02T20:03:19.348Z,3.90
2018-08-02T20:05:46.568Z,3.90
2018-08-02T20:08:14.532Z,3.97
2018-08-02T20:10:41.785Z,4.47
2018-08-02T20:13:08.951Z,3.87
2018-08-02T20:15:36.144Z,4.03
2018-08-02T20:18:03.334Z,3.40
2018-08-02T20:20:30.513Z,4.33
2018-08-02T20:22:57.717Z,3.83
2018-08-02T20:25:24.981Z,4.03
2018-08-02T20:27:52.236Z,3.73
2018-08-02T20:30:26.422Z,4.47
2018-08-02T20:32:55.054Z,3.50
2018-08-02T20:35:22.355Z,4.40
2018-08-02T20:37:49.817Z,4.37
2018-08-02T20:40:16.992Z,4.37
2018-08-02T20:42:44.452Z,5.57
2018-08-02T20:45:11.656Z,5.00
2018-08-02T20:47:38.828Z,4.63
2018-08-02T20:50:06.024Z,4.50
2018-08-02T20:52:33.276Z,5.10
2018-08-02T20:55:00.452Z,7.00
2018-08-02T20:57:27.696Z,6.57
2018-08-02T20:59:54.877Z,5.63
2018-08-02T21:02:22.049Z,6.17
2018-08-02T21:04:49.244Z,6.27
2018-08-02T21:07:16.416Z,4.73
2018-08-02T21:09:43.902Z,4.97
2018-08-02T21:12:11.139Z,6.20
2018-08-02T21:14:38.420Z,6.33
2018-08-02T21:17:05.592Z,5.60
2018-08-02T21:19:32.788Z,5.77
2018-08-02T21:21:59.972Z,5.40
2018-08-02T21:24:27.125Z,5.20
2018-08-02T21:26:54.288Z,12.30
2018-08-02T21:29:21.494Z,7.47
2018-08-02T21:31:48.659Z,6.30
2018-08-02T21:34:15.840Z,5.70
2018-08-02T21:36:43.126Z,5.50
2018-08-02T21:39:10.300Z,5.13
2018-08-02T21:41:37.488Z,5.67
2018-08-02T21:44:04.684Z,4.53
2018-08-02T21:46:31.937Z,4.40
2018-08-02T21:48:59.352Z,4.33
2018-08-02T21:51:26.512Z,4.57
2018-08-02T21:53:53.715Z,3.97
2018-08-02T21:56:20.872Z,4.73
2018-08-02T21:58:48.049Z,4.53
2018-08-02T22:01:15.208Z,4.47
2018-08-02T22:03:42.423Z,4.77
2018-08-02T22:06:15.248Z,4.87
2018-08-02T22:08:42.442Z,4.57
2018-08-02T22:11:09.641Z,4.33
2018-08-02T22:13:42.587Z,4.27
2018-08-02T22:16:15.422Z,4.20
2018-08-02T22:18:42.665Z,4.60
2018-08-02T22:21:09.817Z,4.53
2018-08-02T22:23:37.020Z,5.03
2018-08-02T22:26:04.204Z,4.17
2018-08-02T22:28:31.380Z,5.00
2018-08-02T22:30:58.568Z,4.50
2018-08-02T22:33:25.829Z,4.37
2018-08-02T22:35:52.992Z,5.27
2018-08-02T22:38:20.240Z,4.10
2018-08-02T22:40:47.485Z,3.93
2018-08-02T22:43:14.644Z,4.73
2018-08-02T22:45:41.897Z,4.57
2018-08-02T22:48:09.069Z,4.30
2018-08-02T22:50:36.237Z,4.50
2018-08-02T22:53:03.430Z,4.33
2018-08-02T22:55:30.599Z,4.43
2018-08-02T22:57:57.780Z,4.30
2018-08-02T23:00:25.003Z,4.27
2018-08-02T23:02:52.148Z,4.40
2018-08-02T23:05:19.326Z,4.50
2018-08-02T23:07:46.487Z,4.00
2018-08-02T23:10:13.676Z,4.33
2018-08-02T23:12:40.851Z,3.90
2018-08-02T23:15:08.359Z,4.27
2018-08-02T23:17:35.559Z,4.40
2018-08-02T23:20:02.964Z,4.80
2018-08-02T23:22:30.164Z,4.33
2018-08-02T23:24:57.335Z,4.20
2018-08-02T23:27:24.504Z,3.63
2018-08-02T23:29:51.667Z,3.90
2018-08-02T23:32:18.814Z,4.50
2018-08-02T23:34:46.048Z,4.00
2018-08-02T23:37:13.196Z,4.13
2018-08-02T23:39:40.362Z,4.30
2018-08-02T23:42:07.520Z,4.47
2018-08-02T23:44:34.695Z,4.70
2018-08-02T23:47:01.865Z,4.60
2018-08-02T23:49:29.020Z,4.70
2018-08-02T23:51:56.267Z,5.07
2018-08-02T23:54:23.433Z,5.13
2018-08-02T23:56:50.599Z,4.60
2018-08-02T23:59:17.772Z,4.70
